Time;durP1;ratioP1;P1;durP2;ratioP2;P2;SDS_P1;SDS_P2;PMS_P1;PMS_P2;Temp;Humidity;BMP_temperature;BMP_pressure;BME280_temperature;BME280_humidity;BME280_pressure;Samples;Min_cycle;Max_cycle;Signal;HPM_P1;HPM_P2
2021/12/22 00:02:04;;;;;;;27.80;16.17;;;;;;;-5.88;94.80;96175.69;6186237;23;20212;-81
2021/12/22 00:04:32;;;;;;;27.03;16.53;;;;;;;-5.90;94.41;96190.91;6186267;23;20204;-81
2021/12/22 00:06:57;;;;;;;28.20;17.77;;;;;;;-5.82;93.95;96186.50;6185411;23;20623;-80
2021/12/22 00:09:22;;;;;;;27.03;16.90;;;;;;;-5.87;93.94;96197.59;6185846;23;20171;-80
2021/12/22 00:11:49;;;;;;;25.00;16.17;;;;;;;-5.87;94.32;96195.06;6159175;23;20161;-82
2021/12/22 00:14:14;;;;;;;25.00;16.43;;;;;;;-5.86;94.25;96189.13;6159884;23;20537;-83
2021/12/22 00:16:39;;;;;;;29.17;16.50;;;;;;;-5.94;94.54;96181.72;6159795;23;20180;-82
2021/12/22 00:19:06;;;;;;;25.80;16.50;;;;;;;-6.00;94.20;96187.78;6185187;23;20600;-81
2021/12/22 00:21:31;;;;;;;31.47;17.23;;;;;;;-5.97;94.47;96191.91;6159293;23;20170;-82
2021/12/22 00:23:57;;;;;;;25.43;16.07;;;;;;;-5.92;94.49;96181.69;6184796;23;20285;-82
2021/12/22 00:26:22;;;;;;;26.87;16.27;;;;;;;-6.01;94.74;96172.59;6184948;23;20644;-82
2021/12/22 00:28:48;;;;;;;26.30;17.20;;;;;;;-5.99;94.67;96173.44;6184312;23;20499;-82
2021/12/22 00:31:15;;;;;;;27.10;16.67;;;;;;;-5.90;94.79;96185.03;6159344;23;20163;-82
2021/12/22 00:33:50;;;;;;;29.27;17.27;;;;;;;-5.96;95.18;96190.22;6184261;23;20594;-82
2021/12/22 00:36:17;;;;;;;26.23;16.90;;;;;;;-5.92;94.61;96194.34;6161723;23;20561;-82
2021/12/22 00:38:43;;;;;;;24.83;16.17;;;;;;;-5.94;94.13;96199.44;6135435;23;20215;-81
2021/12/22 00:41:08;;;;;;;24.30;16.70;;;;;;;-5.98;94.03;96197.03;6183417;23;20170;-82
2021/12/22 00:43:34;;;;;;;26.10;16.97;;;;;;;-5.97;94.40;96202.03;6159688;23;20154;-81
2021/12/22 00:45:59;;;;;;;25.77;16.33;;;;;;;-5.97;94.62;96198.69;6184326;23;20197;-82
2021/12/22 00:48:25;;;;;;;25.33;17.03;;;;;;;-6.05;94.58;96194.59;6184196;23;20181;-82
2021/12/22 00:50:50;;;;;;;27.60;16.90;;;;;;;-6.03;94.75;96192.03;6159014;23;20627;-82
2021/12/22 00:53:16;;;;;;;24.70;15.37;;;;;;;-6.02;94.74;96186.94;6183660;23;20174;-81
2021/12/22 00:55:41;;;;;;;27.43;16.20;;;;;;;-6.05;94.76;96194.59;6159203;23;20225;-82
2021/12/22 00:58:07;;;;;;;26.97;16.13;;;;;;;-6.07;94.70;96188.75;6184499;23;20156;-82
2021/12/22 01:00:32;;;;;;;29.27;16.23;;;;;;;-6.08;94.44;96191.31;6160254;23;20165;-82
2021/12/22 01:02:57;;;;;;;26.50;16.20;;;;;;;-6.09;94.13;96187.97;6183241;23;20188;-82
2021/12/22 01:05:23;;;;;;;26.97;16.43;;;;;;;-6.10;94.38;96195.56;6183436;23;20184;-81
2021/12/22 01:07:49;;;;;;;25.50;17.40;;;;;;;-6.05;94.30;96188.72;6186183;23;20168;-82
2021/12/22 01:10:16;;;;;;;28.40;17.07;;;;;;;-6.10;94.48;96185.44;6160186;23;20160;-81
2021/12/22 01:12:41;;;;;;;28.60;16.47;;;;;;;-6.11;95.19;96181.25;6135174;23;20500;-82
2021/12/22 01:15:11;;;;;;;23.60;16.10;;;;;;;-6.12;94.49;96175.38;6185175;23;20181;-82
2021/12/22 01:17:43;;;;;;;23.33;15.53;;;;;;;-6.09;95.33;96177.84;6160483;23;20212;-82
2021/12/22 01:20:19;;;;;;;24.47;16.10;;;;;;;-6.02;94.65;96170.94;6186682;23;20583;-83
2021/12/22 01:25:12;;;;;;;26.47;15.77;;;;;;;-6.04;94.73;96175.22;6185744;23;20200;-82
2021/12/22 01:27:41;;;;;;;24.73;16.23;;;;;;;-6.03;94.62;96182.75;6184511;23;20237;-82
2021/12/22 01:30:12;;;;;;;29.50;17.67;;;;;;;-6.06;94.57;96177.78;6185280;23;20165;-82
2021/12/22 01:32:38;;;;;;;22.60;15.77;;;;;;;-6.03;94.45;96179.41;6184359;23;20141;-81
2021/12/22 01:35:06;;;;;;;25.70;15.83;;;;;;;-6.11;94.45;96183.78;6136053;23;20407;-82
2021/12/22 01:37:31;;;;;;;26.23;15.47;;;;;;;-6.09;94.79;96184.59;6134562;23;20158;-82
2021/12/22 01:39:56;;;;;;;27.83;17.63;;;;;;;-6.07;94.20;96187.94;6159876;23;20645;-82
2021/12/22 01:42:22;;;;;;;27.30;16.03;;;;;;;-6.13;94.30;96186.34;6183890;23;20161;-82
2021/12/22 01:50:43;;;;;;;27.63;16.67;;;;;;;-6.07;95.04;96191.28;6164277;23;20191;-82
2021/12/22 01:53:21;;;;;;;24.93;15.47;;;;;;;-6.08;94.13;96188.78;6158238;23;20189;-81
2021/12/22 01:55:59;;;;;;;28.47;16.27;;;;;;;-6.14;95.11;96192.28;6184269;23;20184;-82
2021/12/22 01:58:34;;;;;;;28.73;15.90;;;;;;;-6.09;93.77;96192.19;6137008;23;20162;-82
2021/12/22 02:01:01;;;;;;;24.73;15.50;;;;;;;-6.12;94.10;96189.72;6135253;23;20153;-82
2021/12/22 02:03:26;;;;;;;23.93;16.77;;;;;;;-6.16;94.70;96190.66;6134494;23;20158;-82
2021/12/22 02:05:51;;;;;;;26.20;15.77;;;;;;;-6.17;94.81;96191.53;6158200;23;20240;-82
2021/12/22 02:08:17;;;;;;;23.67;15.27;;;;;;;-6.13;94.52;96193.94;6184330;23;20153;-82
2021/12/22 02:10:46;;;;;;;30.23;17.17;;;;;;;-6.14;94.73;96197.31;6159830;23;20172;-82
2021/12/22 02:13:16;;;;;;;26.93;17.10;;;;;;;-6.12;94.10;96203.19;6183020;23;20193;-83
2021/12/22 02:15:43;;;;;;;27.50;17.13;;;;;;;-6.09;94.54;96204.84;6161247;23;20184;-82
2021/12/22 02:18:15;;;;;;;28.80;17.20;;;;;;;-6.13;94.77;96200.69;6136693;23;20161;-82
2021/12/22 02:20:40;;;;;;;27.83;16.83;;;;;;;-6.12;94.54;96197.28;6187661;23;20227;-82
2021/12/22 02:23:05;;;;;;;27.40;16.97;;;;;;;-6.14;95.28;96196.50;6187030;23;20659;-82
2021/12/22 02:25:36;;;;;;;27.23;17.17;;;;;;;-6.07;94.58;96201.41;6139185;23;20200;-82
2021/12/22 02:28:04;;;;;;;28.33;16.20;;;;;;;-6.12;94.50;96190.53;6162753;23;20141;-82
2021/12/22 02:30:32;;;;;;;30.67;17.73;;;;;;;-6.16;94.86;96191.47;6186049;23;20160;-82
2021/12/22 02:33:20;;;;;;;28.00;17.20;;;;;;;-6.19;94.67;96185.63;6185507;23;20249;-82
2021/12/22 02:35:54;;;;;;;24.13;15.33;;;;;;;-6.12;94.87;96190.53;6161651;23;20248;-82
2021/12/22 02:38:20;;;;;;;28.57;17.23;;;;;;;-6.22;94.80;96189.06;6184959;23;20163;-81
2021/12/22 02:40:49;;;;;;;24.50;16.80;;;;;;;-6.17;95.37;96182.22;6162369;23;20165;-82
2021/12/22 02:43:20;;;;;;;29.50;16.47;;;;;;;-6.06;94.64;96175.25;6161107;23;20153;-82
2021/12/22 02:45:46;;;;;;;29.27;17.20;;;;;;;-6.15;94.01;96180.50;6160946;23;20278;-82
2021/12/22 02:48:12;;;;;;;27.90;16.23;;;;;;;-6.21;93.97;96178.09;6186499;23;20611;-82
2021/12/22 02:50:37;;;;;;;23.13;15.10;;;;;;;-6.16;94.57;96183.91;6186115;23;20161;-82
2021/12/22 02:53:13;;;;;;;23.17;15.50;;;;;;;-6.16;94.11;96183.06;6185259;23;20178;-82
2021/12/22 02:55:46;;;;;;;27.53;15.80;;;;;;;-6.23;94.23;96182.34;6162344;23;20638;-82
2021/12/22 02:58:20;;;;;;;26.33;15.77;;;;;;;-6.22;94.81;96176.44;6160388;23;20224;-81
2021/12/22 03:05:59;;;;;;;24.97;16.80;;;;;;;-6.22;94.58;96173.91;6186597;23;20280;-82
2021/12/22 03:08:25;;;;;;;26.67;16.47;;;;;;;-6.15;94.97;96170.38;6161482;23;20188;-82
2021/12/22 03:10:53;;;;;;;26.00;15.70;;;;;;;-6.10;94.40;96171.09;6185826;23;20164;-82
2021/12/22 03:13:20;;;;;;;25.33;14.93;;;;;;;-6.10;94.25;96173.63;6183703;23;20234;-82
2021/12/22 03:15:45;;;;;;;25.27;15.93;;;;;;;-6.23;93.87;96168.88;6183957;23;20205;-82
2021/12/22 03:18:11;;;;;;;24.77;15.57;;;;;;;-6.26;95.17;96174.84;6159382;23;20202;-82
2021/12/22 03:20:36;;;;;;;26.17;16.60;;;;;;;-6.25;94.57;96175.66;6184186;23;20186;-82
2021/12/22 03:23:02;;;;;;;26.70;16.77;;;;;;;-6.16;94.53;96181.38;6182936;23;20150;-82
2021/12/22 03:25:27;;;;;;;25.70;16.77;;;;;;;-6.18;94.31;96178.03;6158259;23;20213;-82
2021/12/22 03:27:53;;;;;;;25.90;15.83;;;;;;;-6.26;94.65;96182.44;6183625;23;20224;-82
2021/12/22 03:30:21;;;;;;;28.97;16.53;;;;;;;-6.26;94.25;96176.53;6158777;23;20161;-82
2021/12/22 03:32:46;;;;;;;24.23;15.47;;;;;;;-6.21;94.89;96180.63;6132858;23;20171;-82
2021/12/22 03:35:17;;;;;;;26.97;15.33;;;;;;;-6.19;94.50;96178.06;6158513;23;20201;-82
2021/12/22 03:37:43;;;;;;;28.17;16.77;;;;;;;-6.28;94.41;96186.66;6158608;23;20154;-82
2021/12/22 03:40:09;;;;;;;27.43;16.97;;;;;;;-6.35;94.64;96185.97;6158747;23;20157;-82
2021/12/22 03:42:34;;;;;;;29.13;16.80;;;;;;;-6.35;94.33;96185.13;6157983;23;20221;-82
2021/12/22 03:44:59;;;;;;;25.17;16.57;;;;;;;-6.35;95.06;96182.63;6158633;23;20235;-82
2021/12/22 03:47:26;;;;;;;24.43;15.57;;;;;;;-6.33;94.76;96181.72;6185338;23;20479;-82
2021/12/22 03:49:51;;;;;;;28.53;16.13;;;;;;;-6.26;95.05;96190.00;6183385;23;20169;-81
2021/12/22 03:52:17;;;;;;;26.80;16.43;;;;;;;-6.33;94.46;96194.34;6182950;23;20262;-82
2021/12/22 03:54:42;;;;;;;28.00;16.17;;;;;;;-6.31;94.95;96194.31;6183831;23;20558;-82
2021/12/22 03:57:09;;;;;;;27.73;15.80;;;;;;;-6.32;93.88;96192.66;6154681;23;20182;-81
2021/12/22 03:59:34;;;;;;;25.67;16.30;;;;;;;-6.30;95.02;96198.50;6153767;23;20156;-81
2021/12/22 04:01:59;;;;;;;26.97;16.63;;;;;;;-6.25;94.63;96198.41;6128726;23;20189;-81
2021/12/22 04:04:25;;;;;;;25.77;16.50;;;;;;;-6.27;94.71;96190.88;6128631;23;20150;-80
2021/12/22 04:06:51;;;;;;;28.03;17.00;;;;;;;-6.19;94.54;96185.63;6130013;23;20216;-80
2021/12/22 04:09:17;;;;;;;27.83;15.83;;;;;;;-6.29;94.28;96185.00;6129291;23;20157;-81
2021/12/22 04:11:43;;;;;;;28.30;17.27;;;;;;;-6.29;94.27;96178.25;6128724;23;20503;-81
2021/12/22 04:14:09;;;;;;;26.33;16.90;;;;;;;-6.23;94.41;96172.25;6129122;23;20185;-82
2021/12/22 04:16:35;;;;;;;24.17;15.70;;;;;;;-6.20;94.23;96173.88;6104385;23;20863;-82
2021/12/22 04:19:01;;;;;;;29.77;17.60;;;;;;;-6.28;93.95;96171.50;6130629;23;20164;-83
2021/12/22 04:21:26;;;;;;;26.03;17.00;;;;;;;-6.29;93.88;96168.13;6129924;23;20161;-81
2021/12/22 04:23:51;;;;;;;29.10;16.50;;;;;;;-6.33;94.30;96170.78;6130270;23;20193;-79
2021/12/22 04:26:16;;;;;;;27.33;15.90;;;;;;;-6.33;94.81;96170.78;6130083;23;20213;-80
2021/12/22 04:28:42;;;;;;;27.17;17.53;;;;;;;-6.38;94.33;96165.78;6130423;23;20229;-81
2021/12/22 04:31:07;;;;;;;26.73;16.27;;;;;;;-6.36;94.65;96161.56;6129554;23;20665;-81
2021/12/22 04:33:33;;;;;;;24.20;15.60;;;;;;;-6.33;94.62;96155.59;6129682;23;20190;-81
2021/12/22 04:35:58;;;;;;;28.87;17.23;;;;;;;-6.35;94.41;96168.28;6130076;23;20182;-80
2021/12/22 04:38:24;;;;;;;27.13;16.63;;;;;;;-6.39;95.13;96158.25;6130492;23;20162;-81
2021/12/22 04:40:50;;;;;;;27.30;16.90;;;;;;;-6.37;94.89;96156.50;6130142;23;20157;-80
2021/12/22 04:43:16;;;;;;;26.43;16.87;;;;;;;-6.39;94.92;96159.06;6129541;23;20157;-81
2021/12/22 04:45:42;;;;;;;25.67;16.17;;;;;;;-6.31;94.66;96158.94;6105501;23;20230;-81
2021/12/22 04:48:07;;;;;;;26.30;16.63;;;;;;;-6.24;94.49;96149.53;6130102;23;20169;-81
2021/12/22 04:50:33;;;;;;;31.63;17.37;;;;;;;-6.28;94.83;96149.56;6129922;23;20157;-80
2021/12/22 04:53:08;;;;;;;30.67;17.90;;;;;;;-6.25;94.47;96150.41;6129756;23;20473;-81
2021/12/22 04:55:33;;;;;;;30.43;18.07;;;;;;;-6.34;94.98;96143.84;6132244;23;20176;-80
2021/12/22 04:57:59;;;;;;;27.43;17.10;;;;;;;-6.30;94.59;96138.66;6130216;23;20540;-80
2021/12/22 05:00:27;;;;;;;29.07;17.57;;;;;;;-6.25;94.53;96142.81;6154533;23;20169;-81
2021/12/22 05:02:54;;;;;;;28.63;16.27;;;;;;;-6.30;94.91;96150.47;6129190;23;20663;-81
2021/12/22 05:05:20;;;;;;;26.60;17.23;;;;;;;-6.28;94.40;96149.56;6155105;23;20184;-80
2021/12/22 05:07:47;;;;;;;30.77;17.20;;;;;;;-6.33;94.44;96156.44;6105224;23;20162;-80
2021/12/22 05:10:13;;;;;;;26.93;17.43;;;;;;;-6.32;93.92;96157.25;6154533;23;20207;-80
2021/12/22 05:12:39;;;;;;;28.33;17.77;;;;;;;-6.37;94.45;96161.56;6129990;23;20162;-81
2021/12/22 05:15:04;;;;;;;27.17;17.43;;;;;;;-6.40;94.42;96159.13;6129161;23;20652;-80
2021/12/22 05:20:12;;;;;;;28.60;16.90;;;;;;;-6.45;94.47;96165.94;6133224;23;20225;-80
2021/12/22 05:22:38;;;;;;;28.33;17.43;;;;;;;-6.51;95.36;96163.56;6129892;23;20213;-80
2021/12/22 05:25:05;;;;;;;32.80;18.33;;;;;;;-6.49;95.05;96166.88;6130293;23;20186;-81
2021/12/22 05:27:31;;;;;;;34.30;19.00;;;;;;;-6.48;94.35;96166.84;6128198;23;20174;-81
2021/12/22 05:29:57;;;;;;;27.87;17.37;;;;;;;-6.54;94.81;96158.53;6130110;23;20146;-80
2021/12/22 05:32:26;;;;;;;29.83;17.43;;;;;;;-6.50;94.67;96155.94;6105411;23;20524;-82
2021/12/22 05:34:52;;;;;;;31.10;16.80;;;;;;;-6.44;94.76;96162.56;6134239;23;20390;-81
2021/12/22 05:37:17;;;;;;;29.97;18.10;;;;;;;-6.45;94.85;96165.94;6133934;23;20240;-80
2021/12/22 05:39:43;;;;;;;29.33;17.07;;;;;;;-6.45;94.34;96171.00;6131462;23;20158;-81
2021/12/22 05:42:08;;;;;;;27.37;16.53;;;;;;;-6.50;94.65;96166.06;6129933;23;20158;-81
2021/12/22 05:44:33;;;;;;;29.63;18.13;;;;;;;-6.58;94.68;96168.72;6130064;23;20162;-81
2021/12/22 05:46:59;;;;;;;32.50;17.80;;;;;;;-6.56;94.31;96172.03;6130204;23;20230;-80
2021/12/22 05:49:24;;;;;;;29.77;16.50;;;;;;;-6.57;94.56;96161.97;6129888;23;20258;-81
2021/12/22 05:51:49;;;;;;;28.20;17.00;;;;;;;-6.52;94.23;96152.63;6129024;23;20164;-82
2021/12/22 05:54:15;;;;;;;31.43;16.97;;;;;;;-6.60;94.35;96152.75;6130104;23;20181;-81
2021/12/22 05:56:40;;;;;;;28.03;18.77;;;;;;;-6.57;94.19;96154.38;6129979;23;20181;-81
2021/12/22 05:59:05;;;;;;;31.53;18.67;;;;;;;-6.51;94.54;96150.94;6129731;23;20157;-81
2021/12/22 06:01:31;;;;;;;29.77;17.50;;;;;;;-6.57;94.85;96147.66;6129412;23;20162;-81
2021/12/22 06:03:59;;;;;;;29.27;17.53;;;;;;;-6.52;94.52;96141.69;6128190;23;20237;-80
2021/12/22 06:06:24;;;;;;;26.10;16.23;;;;;;;-6.58;94.68;96145.16;6130139;23;20180;-81
2021/12/22 06:08:50;;;;;;;32.43;18.47;;;;;;;-6.57;95.23;96150.16;6129586;23;20184;-82
2021/12/22 06:11:15;;;;;;;32.07;19.37;;;;;;;-6.55;94.37;96147.59;6129007;23;20157;-80
2021/12/22 06:13:40;;;;;;;28.70;17.27;;;;;;;-6.62;94.88;96139.34;6129239;23;20212;-81
2021/12/22 06:16:06;;;;;;;29.33;17.30;;;;;;;-6.62;94.81;96144.41;6129530;23;20196;-81
2021/12/22 06:18:31;;;;;;;31.80;19.20;;;;;;;-6.65;94.94;96146.97;6128963;23;20186;-80
2021/12/22 06:20:58;;;;;;;28.37;17.83;;;;;;;-6.55;95.14;96150.13;6129145;23;20161;-80
2021/12/22 06:23:23;;;;;;;27.60;17.10;;;;;;;-6.67;94.99;96153.75;6130230;23;20149;-82
2021/12/22 06:25:48;;;;;;;30.77;18.50;;;;;;;-6.63;95.36;96159.56;6129481;23;20207;-82
2021/12/22 06:28:13;;;;;;;29.20;17.93;;;;;;;-6.71;94.30;96162.25;6129579;23;20168;-81
2021/12/22 06:30:39;;;;;;;29.20;17.77;;;;;;;-6.65;95.13;96169.69;6104960;23;20189;-82
2021/12/22 06:33:04;;;;;;;31.87;18.30;;;;;;;-6.66;95.02;96170.56;6152693;23;20155;-81
2021/12/22 06:35:30;;;;;;;33.13;18.13;;;;;;;-6.65;95.02;96169.69;6153043;23;20169;-81
2021/12/22 06:37:55;;;;;;;26.83;17.27;;;;;;;-6.68;94.49;96169.75;6129690;23;20610;-82
2021/12/22 06:40:21;;;;;;;30.73;18.47;;;;;;;-6.69;94.44;96157.16;6129594;23;20522;-81
2021/12/22 06:42:46;;;;;;;32.20;17.60;;;;;;;-6.68;94.19;96151.25;6152996;23;20160;-80
2021/12/22 06:45:12;;;;;;;33.07;17.27;;;;;;;-6.69;94.42;96145.38;6104696;23;20199;-81
2021/12/22 06:47:38;;;;;;;28.27;17.30;;;;;;;-6.71;94.84;96149.63;6129129;23;20152;-83
2021/12/22 06:50:04;;;;;;;30.60;18.93;;;;;;;-6.65;94.56;96139.38;6129488;23;20162;-82
2021/12/22 06:52:30;;;;;;;30.20;17.90;;;;;;;-6.68;94.66;96139.44;6128446;23;20168;-82
2021/12/22 06:54:55;;;;;;;33.83;17.83;;;;;;;-6.63;94.24;96140.19;6129056;23;20194;-82
2021/12/22 06:57:21;;;;;;;28.73;17.47;;;;;;;-6.54;93.88;96140.84;6129030;23;20166;-81
2021/12/22 06:59:47;;;;;;;30.77;18.10;;;;;;;-6.62;94.19;96139.34;6129525;23;20592;-80
2021/12/22 07:02:12;;;;;;;29.73;17.60;;;;;;;-6.65;93.53;96146.97;6103930;23;20168;-82
2021/12/22 07:04:37;;;;;;;27.93;16.50;;;;;;;-6.68;94.37;96167.25;6153732;23;20158;-82
2021/12/22 07:07:03;;;;;;;27.40;17.17;;;;;;;-6.70;94.50;96171.50;6129007;23;20209;-82
2021/12/22 07:09:28;;;;;;;32.67;19.43;;;;;;;-6.64;94.45;96170.53;6129445;23;20157;-82
2021/12/22 07:11:53;;;;;;;31.10;18.73;;;;;;;-6.59;94.08;96168.75;6152555;23;20175;-82
2021/12/22 07:14:19;;;;;;;33.93;20.60;;;;;;;-6.67;93.81;96171.44;6128440;23;20240;-82
2021/12/22 07:16:45;;;;;;;29.30;18.30;;;;;;;-6.68;94.08;96176.50;6104276;23;20165;-82
2021/12/22 07:19:11;;;;;;;30.60;18.53;;;;;;;-6.65;94.20;96178.97;6128992;23;20185;-82
2021/12/22 07:21:37;;;;;;;33.83;18.23;;;;;;;-6.65;93.61;96179.81;6127786;23;20595;-80
2021/12/22 07:24:02;;;;;;;31.23;18.27;;;;;;;-6.65;93.33;96189.91;6129330;23;20157;-80
2021/12/22 07:26:27;;;;;;;28.63;17.07;;;;;;;-6.68;93.48;96189.13;6153567;23;20185;-80
2021/12/22 07:28:53;;;;;;;30.13;18.07;;;;;;;-6.65;93.14;96196.66;6128532;23;20158;-80
2021/12/22 07:31:18;;;;;;;33.77;18.77;;;;;;;-6.61;93.16;96196.59;6153385;23;20935;-80
2021/12/22 07:33:52;;;;;;;31.00;18.70;;;;;;;-6.65;93.48;96194.97;6154000;23;20644;-80
2021/12/22 07:36:17;;;;;;;30.50;17.33;;;;;;;-6.65;93.64;96192.44;6098760;23;20185;-80
2021/12/22 07:38:48;;;;;;;31.63;18.60;;;;;;;-6.65;93.00;96200.00;6126727;23;20163;-80
2021/12/22 07:41:13;;;;;;;28.57;17.20;;;;;;;-6.59;93.07;96197.38;6101792;23;20161;-80
2021/12/22 07:43:39;;;;;;;28.50;16.93;;;;;;;-6.58;92.97;96203.25;6128562;23;20166;-80
2021/12/22 07:46:08;;;;;;;28.93;17.30;;;;;;;-6.56;92.86;96204.88;6151621;23;20305;-79
2021/12/22 07:48:34;;;;;;;29.03;17.53;;;;;;;-6.56;93.28;96215.00;6127524;23;20158;-80
2021/12/22 07:50:59;;;;;;;29.17;17.50;;;;;;;-6.57;93.37;96207.44;6128469;23;20198;-79
2021/12/22 07:53:25;;;;;;;28.67;18.23;;;;;;;-6.52;93.60;96207.38;6128781;23;20264;-78
2021/12/22 07:55:53;;;;;;;30.40;17.33;;;;;;;-6.50;92.73;96209.00;6130267;23;20174;-79
2021/12/22 07:58:19;;;;;;;33.67;19.60;;;;;;;-6.43;93.06;96210.56;6131211;23;20167;-80
2021/12/22 08:00:44;;;;;;;31.53;19.17;;;;;;;-6.51;92.69;96201.47;6128711;23;20169;-80
2021/12/22 08:03:11;;;;;;;27.73;17.30;;;;;;;-6.42;92.57;96208.88;6127986;23;20160;-80
2021/12/22 08:05:37;;;;;;;32.83;18.53;;;;;;;-6.26;91.94;96204.34;6127789;23;20207;-80
2021/12/22 08:08:03;;;;;;;30.13;19.57;;;;;;;-6.18;91.61;96194.88;6104316;23;20684;-80
2021/12/22 08:10:28;;;;;;;34.60;20.53;;;;;;;-6.23;91.57;96200.03;6123671;23;20214;-79
2021/12/22 08:12:53;;;;;;;32.70;19.63;;;;;;;-6.18;91.80;96202.47;6122594;23;20164;-78
2021/12/22 08:15:19;;;;;;;34.80;20.17;;;;;;;-6.24;91.37;96200.91;6123690;23;20659;-79
2021/12/22 08:17:44;;;;;;;30.60;18.77;;;;;;;-6.17;91.38;96207.50;6125383;23;20182;-78
2021/12/22 08:20:10;;;;;;;33.23;18.90;;;;;;;-6.08;91.13;96203.97;6123801;23;20172;-81
2021/12/22 08:22:36;;;;;;;28.57;17.93;;;;;;;-6.03;91.02;96205.50;6098264;23;20625;-80
2021/12/22 08:25:02;;;;;;;29.20;18.03;;;;;;;-5.98;91.31;96207.97;6122914;23;20170;-79
2021/12/22 08:27:27;;;;;;;28.20;16.83;;;;;;;-5.92;90.55;96196.88;6123332;23;20161;-81
2021/12/22 08:29:52;;;;;;;29.67;18.93;;;;;;;-5.86;89.92;96200.06;6123678;23;20222;-79
2021/12/22 08:32:18;;;;;;;31.67;19.03;;;;;;;-5.80;89.95;96191.53;6124141;23;20496;-79
2021/12/22 08:34:46;;;;;;;34.37;21.17;;;;;;;-5.73;89.79;96183.78;6100344;23;20195;-79
2021/12/22 08:39:56;;;;;;;30.50;18.90;;;;;;;-5.64;90.15;96181.91;6127150;23;20209;-81
2021/12/22 08:42:22;;;;;;;27.97;18.10;;;;;;;-5.55;90.24;96177.47;6102244;23;20488;-80
2021/12/22 08:44:48;;;;;;;31.57;18.67;;;;;;;-5.54;89.97;96173.22;6102960;23;20171;-79
2021/12/22 08:47:14;;;;;;;32.47;19.70;;;;;;;-5.36;88.65;96177.03;6078302;23;20189;-79
2021/12/22 08:49:40;;;;;;;31.37;18.83;;;;;;;-5.34;88.98;96171.06;6127052;23;20593;-79
2021/12/22 08:52:06;;;;;;;32.03;19.07;;;;;;;-5.33;88.92;96170.19;6127776;23;20193;-78
2021/12/22 08:54:31;;;;;;;28.97;18.30;;;;;;;-5.23;88.24;96174.16;6127880;23;20210;-80
2021/12/22 08:56:56;;;;;;;30.97;18.93;;;;;;;-5.32;87.64;96173.53;6081095;23;20469;-79
2021/12/22 08:59:23;;;;;;;32.93;18.57;;;;;;;-5.27;88.66;96176.81;6127875;23;20168;-80
2021/12/22 09:01:49;;;;;;;30.77;18.93;;;;;;;-5.25;88.39;96180.97;6126688;23;20163;-80
2021/12/22 09:04:14;;;;;;;33.47;18.87;;;;;;;-5.23;88.01;96180.91;6128692;23;20174;-79
2021/12/22 09:06:39;;;;;;;29.47;18.27;;;;;;;-5.21;88.65;96176.66;6128380;23;20283;-79
2021/12/22 09:09:06;;;;;;;32.90;19.10;;;;;;;-5.15;88.55;96172.25;6102972;23;20163;-79
2021/12/22 09:11:31;;;;;;;32.23;20.20;;;;;;;-5.08;88.19;96179.72;6127376;23;20258;-82
2021/12/22 09:13:57;;;;;;;31.33;19.73;;;;;;;-5.04;88.22;96177.06;6104101;23;20194;-79
2021/12/22 09:16:22;;;;;;;31.10;18.97;;;;;;;-4.99;87.71;96187.91;6128182;23;20181;-79
2021/12/22 09:18:47;;;;;;;33.03;19.93;;;;;;;-4.92;87.91;96193.66;6128535;23;20174;-80
2021/12/22 09:21:13;;;;;;;30.17;18.90;;;;;;;-4.96;87.53;96182.75;6077647;23;20160;-81
2021/12/22 09:23:39;;;;;;;29.67;19.07;;;;;;;-4.89;86.57;96189.34;6078294;23;20546;-81
2021/12/22 09:26:05;;;;;;;32.87;20.50;;;;;;;-4.88;87.08;96185.09;6100734;23;20194;-81
2021/12/22 09:28:31;;;;;;;30.10;18.33;;;;;;;-4.82;87.10;96179.88;6126170;23;20155;-83
2021/12/22 09:30:56;;;;;;;33.27;19.93;;;;;;;-4.81;86.95;96184.06;6130779;23;20191;-81
2021/12/22 09:33:25;;;;;;;35.93;20.37;;;;;;;-4.79;86.93;96189.09;6131373;23;20203;-81
2021/12/22 09:35:51;;;;;;;32.50;19.00;;;;;;;-4.68;86.41;96184.56;6084924;23;20184;-82
2021/12/22 09:38:16;;;;;;;31.47;18.80;;;;;;;-4.61;86.67;96186.09;6131460;23;20162;-81
2021/12/22 09:40:42;;;;;;;31.93;19.50;;;;;;;-4.62;86.02;96186.97;6107108;23;20159;-82
2021/12/22 09:43:07;;;;;;;28.97;19.43;;;;;;;-4.55;85.69;96183.38;6128914;23;20227;-81
2021/12/22 09:45:35;;;;;;;28.83;18.27;;;;;;;-4.46;85.48;96180.59;6082614;23;20208;-80
2021/12/22 09:50:49;;;;;;;32.47;19.77;;;;;;;-4.35;84.72;96181.13;6131466;23;20180;-80
2021/12/22 09:53:16;;;;;;;29.50;18.47;;;;;;;-4.34;84.75;96179.44;6109675;23;20170;-82
2021/12/22 09:55:42;;;;;;;26.37;16.43;;;;;;;-4.25;84.14;96185.94;6131088;23;20179;-81
2021/12/22 09:58:09;;;;;;;33.73;18.57;;;;;;;-4.20;84.09;96184.97;6130742;23;20545;-80
2021/12/22 10:00:35;;;;;;;31.80;18.80;;;;;;;-4.23;83.54;96181.69;6130563;23;20167;-80
2021/12/22 10:03:02;;;;;;;28.50;18.33;;;;;;;-4.16;83.42;96181.44;6105689;23;20199;-83
2021/12/22 10:05:27;;;;;;;28.77;18.07;;;;;;;-4.05;83.70;96176.09;6130140;23;20176;-82
2021/12/22 10:08:13;;;;;;;29.40;18.30;;;;;;;-3.96;82.77;96172.47;6130170;23;20210;-81
2021/12/22 10:10:44;;;;;;;29.23;17.63;;;;;;;-4.00;82.70;96167.44;6105680;23;20255;-81
2021/12/22 10:13:17;;;;;;;27.00;17.83;;;;;;;-3.93;81.62;96170.66;6081880;23;20152;-81
2021/12/22 10:15:42;;;;;;;25.20;16.00;;;;;;;-3.95;81.74;96163.97;6084137;23;20179;-82
2021/12/22 10:18:17;;;;;;;26.83;16.93;;;;;;;-3.89;81.30;96159.50;6132530;23;20156;-81
2021/12/22 10:20:44;;;;;;;24.50;15.87;;;;;;;-3.79;80.95;96155.84;6133870;23;20465;-80
2021/12/22 10:23:23;;;;;;;25.40;16.00;;;;;;;-3.79;81.39;96149.94;6132109;23;20172;-82
2021/12/22 10:25:56;;;;;;;24.97;16.77;;;;;;;-3.68;81.46;96152.97;6133840;23;20655;-82
2021/12/22 10:28:57;;;;;;;25.33;16.27;;;;;;;-3.65;80.07;96152.88;6131663;23;20558;-88
2021/12/22 10:31:32;;;;;;;24.17;17.07;;;;;;;-3.61;81.03;96153.63;6128816;23;20582;-82
2021/12/22 10:33:58;;;;;;;25.40;16.90;;;;;;;-3.57;80.79;96150.09;6125887;23;20200;-81
2021/12/22 10:36:23;;;;;;;28.40;16.60;;;;;;;-3.56;80.28;96146.69;6127140;23;20176;-81
2021/12/22 10:39:00;;;;;;;25.27;16.03;;;;;;;-3.48;80.54;96147.28;6101113;23;20170;-80
2021/12/22 10:41:30;;;;;;;25.23;16.10;;;;;;;-3.45;80.04;96142.91;6124015;23;20645;-81
2021/12/22 10:43:56;;;;;;;25.30;16.20;;;;;;;-3.44;79.49;96131.09;6099822;23;20191;-80
2021/12/22 10:46:25;;;;;;;24.37;15.43;;;;;;;-3.39;79.20;96133.47;6124480;23;20183;-79
2021/12/22 10:49:14;;;;;;;31.17;18.33;;;;;;;-3.33;79.18;96128.19;6126020;23;20188;-80
2021/12/22 10:51:42;;;;;;;24.77;16.30;;;;;;;-3.37;78.98;96131.69;6102844;23;20309;-80
2021/12/22 10:54:09;;;;;;;28.03;16.23;;;;;;;-3.25;79.13;96127.06;6100657;23;20183;-79
2021/12/22 10:56:36;;;;;;;25.50;15.90;;;;;;;-3.18;78.57;96120.91;6100037;23;20188;-80
2021/12/22 10:59:08;;;;;;;26.63;17.13;;;;;;;-3.27;77.87;96111.06;6075524;23;20214;-79
2021/12/22 11:01:35;;;;;;;29.07;17.40;;;;;;;-3.21;78.51;96102.38;6080880;23;20159;-79
2021/12/22 11:04:03;;;;;;;29.13;16.87;;;;;;;-3.09;78.88;96104.53;6129539;23;20177;-80
2021/12/22 11:06:34;;;;;;;25.80;16.13;;;;;;;-3.15;78.04;96103.00;6127972;23;20183;-79
2021/12/22 11:09:15;;;;;;;23.20;15.77;;;;;;;-3.05;77.70;96110.31;6103270;23;20595;-80
2021/12/22 11:11:45;;;;;;;26.63;16.33;;;;;;;-3.00;78.09;96108.47;6101956;23;20151;-80
2021/12/22 11:14:22;;;;;;;23.67;16.50;;;;;;;-2.87;77.03;96095.28;6125997;23;20188;-79
2021/12/22 11:17:10;;;;;;;25.03;16.23;;;;;;;-2.92;77.51;96098.84;6101495;23;20191;-80
2021/12/22 11:19:52;;;;;;;25.30;15.90;;;;;;;-3.02;78.20;96090.72;6123729;23;20176;-79
2021/12/22 11:22:19;;;;;;;26.70;16.57;;;;;;;-2.81;77.60;96096.78;6076071;23;20160;-80
2021/12/22 11:24:50;;;;;;;25.47;16.20;;;;;;;-2.72;77.24;96096.47;6130388;23;20536;-80
2021/12/22 11:27:26;;;;;;;26.07;16.17;;;;;;;-2.67;76.76;96099.66;6132958;23;20164;-83
2021/12/22 11:29:55;;;;;;;23.97;15.37;;;;;;;-2.66;76.46;96098.75;6080473;23;20186;-81
2021/12/22 11:32:22;;;;;;;21.90;15.07;;;;;;;-2.50;76.22;96095.69;6102077;23;20236;-81
2021/12/22 11:37:39;;;;;;;26.73;16.50;;;;;;;-2.62;75.33;96102.88;6097537;23;20240;-81
2021/12/22 11:40:10;;;;;;;27.37;15.50;;;;;;;-2.51;75.27;96099.09;6069266;23;20172;-79
2021/12/22 11:42:40;;;;;;;24.67;15.23;;;;;;;-2.51;76.34;96094.03;6072182;23;20655;-83